Wingate, Indiana
Current Conditions -  °F | °C
As of 3:54 PM on Friday 19 Dec 2014 (Local Time) from KLAF Reporting Station
Overcast Overcast  
Wind Chill: -2°   Ceiling: 2500
Heat Index: -2°   Visibility: 7mi
Dew Point: -3°   Wind: 0mph
Humidity: 89%   Direction: NA
Pressure: 30.28"   Gusts: NA
Location:  40.17°N, 87.07°W
Report Text: KLAF 192054Z 00000KT 7SM FEW010 OVC025 M02/M03 A3028 RMK AO2 SLP263 T10171033 55001
Loading
Personal Weather Stations






























Interactive Weather Map New forecast layout! Learn more

10-Day Weather Forecast

Advertisements
Track Severe Weather on mobile